European Causeway — C6RG7 — position and weather

sailwx.info

Track history (hours):
 
Tides and Currents Weather Stations Pressure Air Temp Water Temp Dewpoint Dewpoint Depression Visibility Wind Speed Wind Dir Waves Ship Positions

European Causeway

Operator: P & O Irish Sea

Last reported at 2017-Feb-25 13:34 UTC. Time now 2017-Feb-25 13:53 UTC.
Position N 54°51' W 005°48'.

Length 165 m; draft 5.5 m.

Type: Ship (hazmat cat A). MMSI: 311027000.

Date/timePositionNaut miles runAvg speedWind from/ knotsBaromVisibWave heightAir tempDewpointWater temp
2017-Feb-25 13:34N 54°51' W 005°48'0 0.0
2017-Feb-25 12:33N 54°51' W 005°48'1413.8
2017-Feb-25 11:33N 54°57' W 005°27'1413.7
2017-Feb-25 10:33N 54°59' W 005°03'2 1.6
2017-Feb-25 09:24N 54°58' W 005°01'910.7
2017-Feb-25 08:33N 54°59' W 005°17'1918.4
2017-Feb-25 07:33N 54°52' W 005°47'1 1.4
2017-Feb-25 06:31N 54°51' W 005°48'6 6.5
2017-Feb-25 05:33N 54°54' W 005°39'1918.7
2017-Feb-25 04:34N 55°02' W 005°09'6 6.1
2017-Feb-25 03:34N 54°58' W 005°01'0 0.0
2017-Feb-25 02:34N 54°58' W 005°01'5 4.7
2017-Feb-25 01:28N 55°01' W 005°07'1616.8
2017-Feb-25 00:31N 54°55' W 005°32'10 9.8
2017-Feb-24 23:31N 54°51' W 005°48'0 0.0
2017-Feb-24 22:28N 54°51' W 005°48'6 6.1
2017-Feb-24 21:33N 54°54' W 005°40'1717.3
2017-Feb-24 20:33N 55°01' W 005°13'7 7.3
2017-Feb-24 19:32N 54°58' W 005°01'0 0.0
2017-Feb-24 18:33N 54°58' W 005°01'10 9.7
2017-Feb-24 17:33N 54°59' W 005°18'1818.3
2017-Feb-24 16:33N 54°52' W 005°47'1 1.0
2017-Feb-24 15:33N 54°51' W 005°48'1515.5
2017-Feb-24 14:33N 54°58' W 005°24'1313.3
2017-Feb-24 13:33N 54°58' W 005°01'0 0.0
2017-Feb-24 12:34N 54°58' W 005°01'1211.9
2017-Feb-24 11:33N 54°58' W 005°22'1716.5
2017-Feb-24 10:34N 54°51' W 005°48'0 0.0
2017-Feb-24 09:33N 54°51' W 005°48'1818.0
2017-Feb-24 08:33N 54°59' W 005°20'1110.3
2017-Feb-24 07:29N 54°58' W 005°01'0 0.0
2017-Feb-24 06:29N 54°58' W 005°01'5 5.0
2017-Feb-24 05:31N 55°02' W 005°06'1717.7
2017-Feb-24 04:33N 54°55' W 005°33'9 9.1
2017-Feb-24 03:32N 54°51' W 005°48'0 0.0
2017-Feb-24 02:29N 54°51' W 005°48'3 3.7
2017-Feb-24 01:33N 54°53' W 005°43'1717.5
2017-Feb-24 00:34N 55°00' W 005°15'9 8.5
2017-Feb-23 23:31N 54°58' W 005°01'0 0.0
2017-Feb-23 22:25N 54°58' W 005°01'5 5.9
2017-Feb-23 21:32N 55°02' W 005°07'1717.7
2017-Feb-23 20:33N 54°55' W 005°35'8 8.0
2017-Feb-23 19:30N 54°51' W 005°48'2 2.2
2017-Feb-23 18:33N 54°52' W 005°45'1919.3
2017-Feb-23 17:34N 55°01' W 005°15'9 8.8
2017-Feb-23 16:33N 54°58' W 005°01'5 4.9
2017-Feb-23 15:33N 55°02' W 005°06'1919.4
2017-Feb-23 14:33N 54°54' W 005°37'7 6.9
2017-Feb-23 13:34N 54°51' W 005°48'8 7.8
2017-Feb-23 12:33N 54°54' W 005°36'1717.1
2017-Feb-23 11:33N 55°02' W 005°09'6 6.3
2017-Feb-23 10:34N 54°58' W 005°01'0 0.1
2017-Feb-23 09:34N 54°58' W 005°01'1010.5
2017-Feb-23 08:34N 54°58' W 005°19'1817.3
2017-Feb-23 07:32N 54°51' W 005°48'0 0.1
2017-Feb-23 06:33N 54°51' W 005°48'8 8.1
2017-Feb-23 05:33N 54°55' W 005°36'1916.3
2017-Feb-23 04:24N 54°60' W 005°04'3 3.0
2017-Feb-23 03:33N 54°58' W 005°01'0 0.0
2017-Feb-23 02:33N 54°58' W 005°01'5 5.2
2017-Feb-23 01:33N 55°02' W 005°07'1919.3
2017-Feb-23 00:33N 54°54' W 005°38'7 6.5
2017-Feb-22 23:33N 54°51' W 005°48'0 0.0
2017-Feb-22 22:27N 54°51' W 005°48'4 4.1
2017-Feb-22 21:34N 54°53' W 005°43'1716.5
2017-Feb-22 20:33N 55°00' W 005°17'9 9.1
2017-Feb-22 19:31N 54°58' W 005°01'0 0.0
2017-Feb-22 18:33N 54°58' W 005°01'1111.5
2017-Feb-22 17:33N 54°58' W 005°21'1716.9
2017-Feb-22 16:33N 54°51' W 005°48'0 0.1
2017-Feb-22 15:34N 54°51' W 005°48'1413.6
2017-Feb-22 14:33N 54°57' W 005°27'1414.5
2017-Feb-22 13:33N 54°58' W 005°02'1 0.9
2017-Feb-22 12:33N 54°58' W 005°01'1111.3
2017-Feb-22 11:34N 54°58' W 005°21'1717.1
2017-Feb-22 10:34N 54°51' W 005°48'0 0.1
2017-Feb-22 09:33N 54°51' W 005°48'1514.5
2017-Feb-22 08:33N 54°58' W 005°26'1413.7
2017-Feb-22 07:30N 54°58' W 005°01'0 0.0
2017-Feb-22 06:31N 54°58' W 005°01'5 4.9
2017-Feb-22 05:32N 55°02' W 005°06'1817.1
2017-Feb-22 04:30N 54°54' W 005°34'9 9.0
2017-Feb-22 03:32N 54°51' W 005°48'0 0.0
2017-Feb-22 02:32N 54°51' W 005°48'6 5.5
2017-Feb-22 01:30N 54°54' W 005°39'1617.2
2017-Feb-22 00:33N 55°01' W 005°14'8 3.6
2017-Feb-21 22:20N 54°58' W 005°01'5 5.8
2017-Feb-21 21:29N 55°02' W 005°06'1819.9
2017-Feb-21 20:33N 54°54' W 005°36'8 7.7
2017-Feb-21 19:33N 54°51' W 005°48'0 0.0
2017-Feb-21 18:33N 54°51' W 005°48'1313.5
2017-Feb-21 17:33N 54°57' W 005°27'1414.5
2017-Feb-21 16:33N 54°59' W 005°02'1 1.1
2017-Feb-21 15:33N 54°58' W 005°01'1111.1
2017-Feb-21 14:33N 54°58' W 005°20'1717.4
2017-Feb-21 13:33N 54°51' W 005°48'0 0.0
2017-Feb-21 12:33N 54°51' W 005°48'1414.6
2017-Feb-21 11:33N 54°58' W 005°26'1414.2
2017-Feb-21 10:34N 54°58' W 005°01'0 0.0
2017-Feb-21 09:23N 54°58' W 005°01'1011.6
2017-Feb-21 08:33N 54°59' W 005°18'1818.2
2017-Feb-21 07:33N 54°53' W 005°47'2 1.7
2017-Feb-21 06:31N 54°51' W 005°48'6 6.3
2017-Feb-21 05:33N 54°54' W 005°39'1817.6
2017-Feb-21 04:33N 55°02' W 005°12'8 7.9
2017-Feb-21 03:34N 54°58' W 005°01'0 0.0
2017-Feb-21 02:34N 54°58' W 005°01'5 4.9
2017-Feb-21 01:30N 55°02' W 005°07'1819.5
2017-Feb-21 00:34N 54°54' W 005°36'8 7.1
2017-Feb-20 23:30N 54°51' W 005°48'0 0.0
2017-Feb-20 22:33N 54°51' W 005°48'3 3.2
2017-Feb-20 21:33N 54°53' W 005°43'1818.0
2017-Feb-20 20:34N 55°00' W 005°15'9 8.6
2017-Feb-20 19:34N 54°58' W 005°01'0 0.0
2017-Feb-20 18:33N 54°58' W 005°01'1111.5
2017-Feb-20 17:33N 54°58' W 005°21'1716.9
2017-Feb-20 16:34N 54°51' W 005°48'0 0.1
2017-Feb-20 15:33N 54°51' W 005°48'1413.6
2017-Feb-20 14:33N 54°57' W 005°27'1414.2
2017-Feb-20 13:34N 54°59' W 005°03'1 1.4
2017-Feb-20 12:33N 54°58' W 005°01'1111.2
2017-Feb-20 11:33N 54°58' W 005°21'1717.2
2017-Feb-20 10:33N 54°51' W 005°48'0 0.1
2017-Feb-20 09:33N 54°51' W 005°48'1212.5
2017-Feb-20 08:33N 54°57' W 005°29'1514.5
2017-Feb-20 07:30N 54°59' W 005°02'1 1.2
2017-Feb-20 06:25N 54°58' W 005°01'5 5.9
2017-Feb-20 05:32N 55°02' W 005°07'1818.2
2017-Feb-20 04:34N 54°53' W 005°34'8 8.0
2017-Feb-20 03:32N 54°51' W 005°48'0 0.0
2017-Feb-20 02:34N 54°51' W 005°48'0 0.0
2017-Feb-20 01:26N 54°51' W 005°48'5 6.0
2017-Feb-20 00:33N 54°54' W 005°40'1817.7
2017-Feb-19 23:32N 55°01' W 005°12'7 7.4
2017-Feb-19 22:34N 54°58' W 005°01'5 4.8
2017-Feb-19 21:27N 55°02' W 005°07'1718.5
2017-Feb-19 20:33N 54°55' W 005°34'9 8.9
2017-Feb-19 19:33N 54°51' W 005°48'0 0.0
2017-Feb-19 18:33N 54°51' W 005°48'1313.0
2017-Feb-19 17:33N 54°57' W 005°28'1514.0
2017-Feb-19 16:29N 54°58' W 005°02'1 1.0
2017-Feb-19 15:34N 54°58' W 005°01'5 5.4
2017-Feb-19 14:33N 55°02' W 005°08'1817.6
2017-Feb-19 13:30N 54°54' W 005°37'7 7.6
2017-Feb-19 12:33N 54°51' W 005°48'0 0.0
2017-Feb-19 11:33N 54°51' W 005°48'0 0.0
2017-Feb-19 10:33N 54°51' W 005°48'0 0.0
2017-Feb-19 09:33N 54°51' W 005°48'1313.5
2017-Feb-19 08:33N 54°58' W 005°28'1514.0
2017-Feb-19 07:28N 54°58' W 005°02'1 0.7
2017-Feb-19 06:33N 54°58' W 005°01'0 0.0
2017-Feb-19 05:33N 54°58' W 005°01'0 0.0
2017-Feb-19 04:33N 54°58' W 005°01'0 0.0
2017-Feb-19 03:33N 54°58' W 005°01'0 0.0
2017-Feb-19 02:34N 54°58' W 005°01'0 0.0
2017-Feb-19 01:33N 54°58' W 005°01'0 0.0
2017-Feb-19 00:34N 54°58' W 005°01'0 0.0
2017-Feb-18 23:33N 54°58' W 005°01'0 0.0
2017-Feb-18 22:34N 54°58' W 005°01'7 6.7
2017-Feb-18 21:33N 55°01' W 005°11'1818.4
2017-Feb-18 20:34N 54°53' W 005°40'5 5.0
2017-Feb-18 19:33N 54°51' W 005°48'0 0.0
2017-Feb-18 18:33N 54°51' W 005°48'9 8.8
2017-Feb-18 17:34N 54°55' W 005°35'1917.6
2017-Feb-18 16:30N 54°59' W 005°03'2 2.1
2017-Feb-18 15:33N 54°58' W 005°01'1010.1
2017-Feb-18 14:33N 54°59' W 005°18'1818.3
2017-Feb-18 13:33N 54°51' W 005°48'1 0.6
2017-Feb-18 12:33N 54°51' W 005°48'1313.3
2017-Feb-18 11:33N 54°57' W 005°28'1414.3
2017-Feb-18 10:33N 54°59' W 005°03'2 1.7
2017-Feb-18 09:33N 54°58' W 005°01'1111.1
2017-Feb-18 08:33N 54°58' W 005°20'1717.1
2017-Feb-18 07:32N 54°51' W 005°48'0 0.1
2017-Feb-18 06:32N 54°51' W 005°48'8 8.4
2017-Feb-18 05:33N 54°55' W 005°36'1916.7
2017-Feb-18 04:25N 54°59' W 005°03'2 2.6
2017-Feb-18 03:33N 54°58' W 005°01'0 0.0
2017-Feb-18 02:33N 54°58' W 005°01'5 4.3
2017-Feb-18 01:26N 55°02' W 005°06'1618.1
2017-Feb-18 00:33N 54°55' W 005°31'1010.4
2017-Feb-17 23:33N 54°51' W 005°48'0 0.0
2017-Feb-17 22:33N 54°51' W 005°48'4 4.4
2017-Feb-17 21:33N 54°54' W 005°42'1616.4
2017-Feb-17 20:33N 55°00' W 005°16'9 8.5
2017-Feb-17 19:30N 54°58' W 005°01'0 0.0
2017-Feb-17 18:33N 54°58' W 005°01'1110.7
2017-Feb-17 17:33N 54°58' W 005°19'1817.7
2017-Feb-17 16:33N 54°51' W 005°48'0 0.3
2017-Feb-17 15:34N 54°51' W 005°48'1413.7
2017-Feb-17 14:34N 54°57' W 005°27'1514.5
2017-Feb-17 13:33N 54°58' W 005°02'1 0.5
2017-Feb-17 12:33N 54°58' W 005°01'1110.8
2017-Feb-17 11:33N 54°58' W 005°20'1817.8
2017-Feb-17 10:33N 54°51' W 005°48'0 0.0
2017-Feb-17 09:34N 54°51' W 005°48'1514.9
2017-Feb-17 08:34N 54°58' W 005°25'1413.1
2017-Feb-17 07:30N 54°58' W 005°01'0 0.0
2017-Feb-17 06:33N 54°58' W 005°01'5 4.8
2017-Feb-17 05:31N 55°02' W 005°06'1717.6
2017-Feb-17 04:33N 54°55' W 005°33'9 9.3
2017-Feb-17 03:33N 54°51' W 005°48'0 0.0
2017-Feb-17 02:34N 54°51' W 005°48'5 5.2
2017-Feb-17 01:34N 54°54' W 005°40'1918.6
2017-Feb-17 00:33N 55°02' W 005°11'7 6.9
2017-Feb-16 23:33N 54°58' W 005°01'0 0.0
2017-Feb-16 22:33N 54°58' W 005°01'5 4.8
2017-Feb-16 21:33N 55°02' W 005°06'1717.7
2017-Feb-16 20:33N 54°55' W 005°34'9 9.0
2017-Feb-16 19:33N 54°51' W 005°48'0 0.0
2017-Feb-16 18:33N 54°51' W 005°48'1313.2
2017-Feb-16 17:33N 54°57' W 005°28'1514.6
2017-Feb-16 16:33N 54°59' W 005°02'1 1.2
2017-Feb-16 15:33N 54°58' W 005°01'1212.0
2017-Feb-16 14:34N 54°58' W 005°22'1615.3
2017-Feb-16 13:29N 54°51' W 005°48'0 0.0
2017-Feb-16 12:34N 54°51' W 005°48'1413.9
2017-Feb-16 11:34N 54°57' W 005°26'1414.2
2017-Feb-16 10:34N 54°58' W 005°02'1 0.6
2017-Feb-16 09:25N 54°58' W 005°01'1012.1
2017-Feb-16 08:33N 54°58' W 005°19'1817.6
2017-Feb-16 07:32N 54°51' W 005°48'0 0.1
2017-Feb-16 06:31N 54°51' W 005°48'6 6.1
2017-Feb-16 05:33N 54°54' W 005°39'1818.4
2017-Feb-16 04:33N 55°02' W 005°10'7 6.7
2017-Feb-16 03:34N 54°58' W 005°01'0 0.0
2017-Feb-16 02:34N 54°58' W 005°01'2 2.2
2017-Feb-16 01:33N 54°59' W 005°03'1717.3
2017-Feb-16 00:33N 54°54' W 005°32'10 9.9
2017-Feb-15 23:33N 54°51' W 005°48'0 0.0
2017-Feb-15 22:33N 54°51' W 005°48'4 4.1
2017-Feb-15 21:33N 54°53' W 005°42'1717.4
2017-Feb-15 20:33N 55°01' W 005°15'8 8.2
2017-Feb-15 19:33N 54°58' W 005°01'0 0.0
2017-Feb-15 18:33N 54°58' W 005°01'1111.1
2017-Feb-15 17:33N 54°59' W 005°20'1717.5
2017-Feb-15 16:33N 54°51' W 005°48'0 0.3
2017-Feb-15 15:33N 54°51' W 005°48'1312.7
2017-Feb-15 14:34N 54°57' W 005°29'  
Track history (hours):
 
Tides and Currents Weather Stations Pressure Air Temp Water Temp Dewpoint Dewpoint Depression Visibility Wind Speed Wind Dir Waves Ship Positions

European Causeway

Operator: P & O Irish Sea

Last reported at 2017-Feb-25 13:34 UTC. Time now 2017-Feb-25 13:53 UTC.
Position N 54°51' W 005°48'.

Length 165 m; draft 5.5 m.

Type: Ship (hazmat cat A). MMSI: 311027000.

Date/timePositionNaut miles runAvg speedWind from/ knotsBaromVisibWave heightAir tempDewpointWater temp
2017-Feb-25 13:34N 54°51' W 005°48'0 0.0
2017-Feb-25 12:33N 54°51' W 005°48'1413.8
2017-Feb-25 11:33N 54°57' W 005°27'1413.7
2017-Feb-25 10:33N 54°59' W 005°03'2 1.6
2017-Feb-25 09:24N 54°58' W 005°01'910.7
2017-Feb-25 08:33N 54°59' W 005°17'1918.4
2017-Feb-25 07:33N 54°52' W 005°47'1 1.4
2017-Feb-25 06:31N 54°51' W 005°48'6 6.5
2017-Feb-25 05:33N 54°54' W 005°39'1918.7
2017-Feb-25 04:34N 55°02' W 005°09'6 6.1
2017-Feb-25 03:34N 54°58' W 005°01'0 0.0
2017-Feb-25 02:34N 54°58' W 005°01'5 4.7
2017-Feb-25 01:28N 55°01' W 005°07'1616.8
2017-Feb-25 00:31N 54°55' W 005°32'10 9.8
2017-Feb-24 23:31N 54°51' W 005°48'0 0.0
2017-Feb-24 22:28N 54°51' W 005°48'6 6.1
2017-Feb-24 21:33N 54°54' W 005°40'1717.3
2017-Feb-24 20:33N 55°01' W 005°13'7 7.3
2017-Feb-24 19:32N 54°58' W 005°01'0 0.0
2017-Feb-24 18:33N 54°58' W 005°01'10 9.7
2017-Feb-24 17:33N 54°59' W 005°18'1818.3
2017-Feb-24 16:33N 54°52' W 005°47'1 1.0
2017-Feb-24 15:33N 54°51' W 005°48'1515.5
2017-Feb-24 14:33N 54°58' W 005°24'1313.3
2017-Feb-24 13:33N 54°58' W 005°01'0 0.0
2017-Feb-24 12:34N 54°58' W 005°01'1211.9
2017-Feb-24 11:33N 54°58' W 005°22'1716.5
2017-Feb-24 10:34N 54°51' W 005°48'0 0.0
2017-Feb-24 09:33N 54°51' W 005°48'1818.0
2017-Feb-24 08:33N 54°59' W 005°20'1110.3
2017-Feb-24 07:29N 54°58' W 005°01'0 0.0
2017-Feb-24 06:29N 54°58' W 005°01'5 5.0
2017-Feb-24 05:31N 55°02' W 005°06'1717.7
2017-Feb-24 04:33N 54°55' W 005°33'9 9.1
2017-Feb-24 03:32N 54°51' W 005°48'0 0.0
2017-Feb-24 02:29N 54°51' W 005°48'3 3.7
2017-Feb-24 01:33N 54°53' W 005°43'1717.5
2017-Feb-24 00:34N 55°00' W 005°15'9 8.5
2017-Feb-23 23:31N 54°58' W 005°01'0 0.0
2017-Feb-23 22:25N 54°58' W 005°01'5 5.9
2017-Feb-23 21:32N 55°02' W 005°07'1717.7
2017-Feb-23 20:33N 54°55' W 005°35'8 8.0
2017-Feb-23 19:30N 54°51' W 005°48'2 2.2
2017-Feb-23 18:33N 54°52' W 005°45'1919.3
2017-Feb-23 17:34N 55°01' W 005°15'9 8.8
2017-Feb-23 16:33N 54°58' W 005°01'5 4.9
2017-Feb-23 15:33N 55°02' W 005°06'1919.4
2017-Feb-23 14:33N 54°54' W 005°37'7 6.9
2017-Feb-23 13:34N 54°51' W 005°48'8 7.8
2017-Feb-23 12:33N 54°54' W 005°36'1717.1
2017-Feb-23 11:33N 55°02' W 005°09'6 6.3
2017-Feb-23 10:34N 54°58' W 005°01'0 0.1
2017-Feb-23 09:34N 54°58' W 005°01'1010.5
2017-Feb-23 08:34N 54°58' W 005°19'1817.3
2017-Feb-23 07:32N 54°51' W 005°48'0 0.1
2017-Feb-23 06:33N 54°51' W 005°48'8 8.1
2017-Feb-23 05:33N 54°55' W 005°36'1916.3
2017-Feb-23 04:24N 54°60' W 005°04'3 3.0
2017-Feb-23 03:33N 54°58' W 005°01'0 0.0
2017-Feb-23 02:33N 54°58' W 005°01'5 5.2
2017-Feb-23 01:33N 55°02' W 005°07'1919.3
2017-Feb-23 00:33N 54°54' W 005°38'7 6.5
2017-Feb-22 23:33N 54°51' W 005°48'0 0.0
2017-Feb-22 22:27N 54°51' W 005°48'4 4.1
2017-Feb-22 21:34N 54°53' W 005°43'1716.5
2017-Feb-22 20:33N 55°00' W 005°17'9 9.1
2017-Feb-22 19:31N 54°58' W 005°01'0 0.0
2017-Feb-22 18:33N 54°58' W 005°01'1111.5
2017-Feb-22 17:33N 54°58' W 005°21'1716.9
2017-Feb-22 16:33N 54°51' W 005°48'0 0.1
2017-Feb-22 15:34N 54°51' W 005°48'1413.6
2017-Feb-22 14:33N 54°57' W 005°27'1414.5
2017-Feb-22 13:33N 54°58' W 005°02'1 0.9
2017-Feb-22 12:33N 54°58' W 005°01'1111.3
2017-Feb-22 11:34N 54°58' W 005°21'1717.1
2017-Feb-22 10:34N 54°51' W 005°48'0 0.1
2017-Feb-22 09:33N 54°51' W 005°48'1514.5
2017-Feb-22 08:33N 54°58' W 005°26'1413.7
2017-Feb-22 07:30N 54°58' W 005°01'0 0.0
2017-Feb-22 06:31N 54°58' W 005°01'5 4.9
2017-Feb-22 05:32N 55°02' W 005°06'1817.1
2017-Feb-22 04:30N 54°54' W 005°34'9 9.0
2017-Feb-22 03:32N 54°51' W 005°48'0 0.0
2017-Feb-22 02:32N 54°51' W 005°48'6 5.5
2017-Feb-22 01:30N 54°54' W 005°39'1617.2
2017-Feb-22 00:33N 55°01' W 005°14'8 3.6
2017-Feb-21 22:20N 54°58' W 005°01'5 5.8
2017-Feb-21 21:29N 55°02' W 005°06'1819.9
2017-Feb-21 20:33N 54°54' W 005°36'8 7.7
2017-Feb-21 19:33N 54°51' W 005°48'0 0.0
2017-Feb-21 18:33N 54°51' W 005°48'1313.5
2017-Feb-21 17:33N 54°57' W 005°27'1414.5
2017-Feb-21 16:33N 54°59' W 005°02'1 1.1
2017-Feb-21 15:33N 54°58' W 005°01'1111.1
2017-Feb-21 14:33N 54°58' W 005°20'1717.4
2017-Feb-21 13:33N 54°51' W 005°48'0 0.0
2017-Feb-21 12:33N 54°51' W 005°48'1414.6
2017-Feb-21 11:33N 54°58' W 005°26'1414.2
2017-Feb-21 10:34N 54°58' W 005°01'0 0.0
2017-Feb-21 09:23N 54°58' W 005°01'1011.6
2017-Feb-21 08:33N 54°59' W 005°18'1818.2
2017-Feb-21 07:33N 54°53' W 005°47'2 1.7
2017-Feb-21 06:31N 54°51' W 005°48'6 6.3
2017-Feb-21 05:33N 54°54' W 005°39'1817.6
2017-Feb-21 04:33N 55°02' W 005°12'8 7.9
2017-Feb-21 03:34N 54°58' W 005°01'0 0.0
2017-Feb-21 02:34N 54°58' W 005°01'5 4.9
2017-Feb-21 01:30N 55°02' W 005°07'1819.5
2017-Feb-21 00:34N 54°54' W 005°36'8 7.1
2017-Feb-20 23:30N 54°51' W 005°48'0 0.0
2017-Feb-20 22:33N 54°51' W 005°48'3 3.2
2017-Feb-20 21:33N 54°53' W 005°43'1818.0
2017-Feb-20 20:34N 55°00' W 005°15'9 8.6
2017-Feb-20 19:34N 54°58' W 005°01'0 0.0
2017-Feb-20 18:33N 54°58' W 005°01'1111.5
2017-Feb-20 17:33N 54°58' W 005°21'1716.9
2017-Feb-20 16:34N 54°51' W 005°48'0 0.1
2017-Feb-20 15:33N 54°51' W 005°48'1413.6
2017-Feb-20 14:33N 54°57' W 005°27'1414.2
2017-Feb-20 13:34N 54°59' W 005°03'1 1.4
2017-Feb-20 12:33N 54°58' W 005°01'1111.2
2017-Feb-20 11:33N 54°58' W 005°21'1717.2
2017-Feb-20 10:33N 54°51' W 005°48'0 0.1
2017-Feb-20 09:33N 54°51' W 005°48'1212.5
2017-Feb-20 08:33N 54°57' W 005°29'1514.5
2017-Feb-20 07:30N 54°59' W 005°02'1 1.2
2017-Feb-20 06:25N 54°58' W 005°01'5 5.9
2017-Feb-20 05:32N 55°02' W 005°07'1818.2
2017-Feb-20 04:34N 54°53' W 005°34'8 8.0
2017-Feb-20 03:32N 54°51' W 005°48'0 0.0
2017-Feb-20 02:34N 54°51' W 005°48'0 0.0
2017-Feb-20 01:26N 54°51' W 005°48'5 6.0
2017-Feb-20 00:33N 54°54' W 005°40'1817.7
2017-Feb-19 23:32N 55°01' W 005°12'7 7.4
2017-Feb-19 22:34N 54°58' W 005°01'5 4.8
2017-Feb-19 21:27N 55°02' W 005°07'1718.5
2017-Feb-19 20:33N 54°55' W 005°34'9 8.9
2017-Feb-19 19:33N 54°51' W 005°48'0 0.0
2017-Feb-19 18:33N 54°51' W 005°48'1313.0
2017-Feb-19 17:33N 54°57' W 005°28'1514.0
2017-Feb-19 16:29N 54°58' W 005°02'1 1.0
2017-Feb-19 15:34N 54°58' W 005°01'5 5.4
2017-Feb-19 14:33N 55°02' W 005°08'1817.6
2017-Feb-19 13:30N 54°54' W 005°37'7 7.6
2017-Feb-19 12:33N 54°51' W 005°48'0 0.0
2017-Feb-19 11:33N 54°51' W 005°48'0 0.0
2017-Feb-19 10:33N 54°51' W 005°48'0 0.0
2017-Feb-19 09:33N 54°51' W 005°48'1313.5
2017-Feb-19 08:33N 54°58' W 005°28'1514.0
2017-Feb-19 07:28N 54°58' W 005°02'1 0.7
2017-Feb-19 06:33N 54°58' W 005°01'0 0.0
2017-Feb-19 05:33N 54°58' W 005°01'0 0.0
2017-Feb-19 04:33N 54°58' W 005°01'0 0.0
2017-Feb-19 03:33N 54°58' W 005°01'0 0.0
2017-Feb-19 02:34N 54°58' W 005°01'0 0.0
2017-Feb-19 01:33N 54°58' W 005°01'0 0.0
2017-Feb-19 00:34N 54°58' W 005°01'0 0.0
2017-Feb-18 23:33N 54°58' W 005°01'0 0.0
2017-Feb-18 22:34N 54°58' W 005°01'7 6.7
2017-Feb-18 21:33N 55°01' W 005°11'1818.4
2017-Feb-18 20:34N 54°53' W 005°40'5 5.0
2017-Feb-18 19:33N 54°51' W 005°48'0 0.0
2017-Feb-18 18:33N 54°51' W 005°48'9 8.8
2017-Feb-18 17:34N 54°55' W 005°35'1917.6
2017-Feb-18 16:30N 54°59' W 005°03'2 2.1
2017-Feb-18 15:33N 54°58' W 005°01'1010.1
2017-Feb-18 14:33N 54°59' W 005°18'1818.3
2017-Feb-18 13:33N 54°51' W 005°48'1 0.6
2017-Feb-18 12:33N 54°51' W 005°48'1313.3
2017-Feb-18 11:33N 54°57' W 005°28'1414.3
2017-Feb-18 10:33N 54°59' W 005°03'2 1.7
2017-Feb-18 09:33N 54°58' W 005°01'1111.1
2017-Feb-18 08:33N 54°58' W 005°20'1717.1
2017-Feb-18 07:32N 54°51' W 005°48'0 0.1
2017-Feb-18 06:32N 54°51' W 005°48'8 8.4
2017-Feb-18 05:33N 54°55' W 005°36'1916.7
2017-Feb-18 04:25N 54°59' W 005°03'2 2.6
2017-Feb-18 03:33N 54°58' W 005°01'0 0.0
2017-Feb-18 02:33N 54°58' W 005°01'5 4.3
2017-Feb-18 01:26N 55°02' W 005°06'1618.1
2017-Feb-18 00:33N 54°55' W 005°31'1010.4
2017-Feb-17 23:33N 54°51' W 005°48'0 0.0
2017-Feb-17 22:33N 54°51' W 005°48'4 4.4
2017-Feb-17 21:33N 54°54' W 005°42'1616.4
2017-Feb-17 20:33N 55°00' W 005°16'9 8.5
2017-Feb-17 19:30N 54°58' W 005°01'0 0.0
2017-Feb-17 18:33N 54°58' W 005°01'1110.7
2017-Feb-17 17:33N 54°58' W 005°19'1817.7
2017-Feb-17 16:33N 54°51' W 005°48'0 0.3
2017-Feb-17 15:34N 54°51' W 005°48'1413.7
2017-Feb-17 14:34N 54°57' W 005°27'1514.5
2017-Feb-17 13:33N 54°58' W 005°02'1 0.5
2017-Feb-17 12:33N 54°58' W 005°01'1110.8
2017-Feb-17 11:33N 54°58' W 005°20'1817.8
2017-Feb-17 10:33N 54°51' W 005°48'0 0.0
2017-Feb-17 09:34N 54°51' W 005°48'1514.9
2017-Feb-17 08:34N 54°58' W 005°25'1413.1
2017-Feb-17 07:30N 54°58' W 005°01'0 0.0
2017-Feb-17 06:33N 54°58' W 005°01'5 4.8
2017-Feb-17 05:31N 55°02' W 005°06'1717.6
2017-Feb-17 04:33N 54°55' W 005°33'9 9.3
2017-Feb-17 03:33N 54°51' W 005°48'0 0.0
2017-Feb-17 02:34N 54°51' W 005°48'5 5.2
2017-Feb-17 01:34N 54°54' W 005°40'1918.6
2017-Feb-17 00:33N 55°02' W 005°11'7 6.9
2017-Feb-16 23:33N 54°58' W 005°01'0 0.0
2017-Feb-16 22:33N 54°58' W 005°01'5 4.8
2017-Feb-16 21:33N 55°02' W 005°06'1717.7
2017-Feb-16 20:33N 54°55' W 005°34'9 9.0
2017-Feb-16 19:33N 54°51' W 005°48'0 0.0
2017-Feb-16 18:33N 54°51' W 005°48'1313.2
2017-Feb-16 17:33N 54°57' W 005°28'1514.6
2017-Feb-16 16:33N 54°59' W 005°02'1 1.2
2017-Feb-16 15:33N 54°58' W 005°01'1212.0
2017-Feb-16 14:34N 54°58' W 005°22'1615.3
2017-Feb-16 13:29N 54°51' W 005°48'0 0.0
2017-Feb-16 12:34N 54°51' W 005°48'1413.9
2017-Feb-16 11:34N 54°57' W 005°26'1414.2
2017-Feb-16 10:34N 54°58' W 005°02'1 0.6
2017-Feb-16 09:25N 54°58' W 005°01'1012.1
2017-Feb-16 08:33N 54°58' W 005°19'1817.6
2017-Feb-16 07:32N 54°51' W 005°48'0 0.1
2017-Feb-16 06:31N 54°51' W 005°48'6 6.1
2017-Feb-16 05:33N 54°54' W 005°39'1818.4
2017-Feb-16 04:33N 55°02' W 005°10'7 6.7
2017-Feb-16 03:34N 54°58' W 005°01'0 0.0
2017-Feb-16 02:34N 54°58' W 005°01'2 2.2
2017-Feb-16 01:33N 54°59' W 005°03'1717.3
2017-Feb-16 00:33N 54°54' W 005°32'10 9.9
2017-Feb-15 23:33N 54°51' W 005°48'0 0.0
2017-Feb-15 22:33N 54°51' W 005°48'4 4.1
2017-Feb-15 21:33N 54°53' W 005°42'1717.4
2017-Feb-15 20:33N 55°01' W 005°15'8 8.2
2017-Feb-15 19:33N 54°58' W 005°01'0 0.0
2017-Feb-15 18:33N 54°58' W 005°01'1111.1
2017-Feb-15 17:33N 54°59' W 005°20'1717.5
2017-Feb-15 16:33N 54°51' W 005°48'0 0.3
2017-Feb-15 15:33N 54°51' W 005°48'1312.7
2017-Feb-15 14:34N 54°57' W 005°29'  

Dump ship's entire track history